Alt de la Fuente, Puerto Rico
Current Conditions -  °F | °C
As of 3:56 AM on Friday 28 Nov 2014 (Local Time) from TJSJ Reporting Station
Clear Clear  
Wind Chill: 74°   Ceiling: Unl
Heat Index: 74°   Visibility: 10mi
Dew Point: 71°   Wind: 0mph
Humidity: 91%   Direction: NA
Pressure: 29.92"   Gusts: NA
Location:  18.2351°N, 66.0374°W
Report Text: TJSJ 280756Z 00000KT 10SM CLR 23/22 A2992 RMK AO2 SLP130 T02330217
Loading
Personal Weather Stations






























Interactive Weather Map New forecast layout! Learn more

10-Day Weather Forecast

Advertisements
Track Severe Weather on mobile